sensor_id;sensor_type;location;lat;lon;timestamp;temperature;humidity
10089;DHT22;51898;49.864;8.550;2023-04-06T00:01:00;2.10;62.70
10089;DHT22;51898;49.864;8.550;2023-04-06T00:04:02;2.00;63.10
10089;DHT22;51898;49.864;8.550;2023-04-06T00:07:04;2.10;62.40
10089;DHT22;51898;49.864;8.550;2023-04-06T00:10:06;2.00;63.00
10089;DHT22;51898;49.864;8.550;2023-04-06T00:13:07;2.00;63.60
10089;DHT22;51898;49.864;8.550;2023-04-06T00:16:09;1.80;64.90
10089;DHT22;51898;49.864;8.550;2023-04-06T00:19:11;1.70;65.60
10089;DHT22;51898;49.864;8.550;2023-04-06T00:22:12;1.70;66.90
10089;DHT22;51898;49.864;8.550;2023-04-06T00:25:14;1.60;67.90
10089;DHT22;51898;49.864;8.550;2023-04-06T00:28:16;1.60;68.20
10089;DHT22;51898;49.864;8.550;2023-04-06T00:31:18;1.60;68.10
10089;DHT22;51898;49.864;8.550;2023-04-06T00:34:20;1.70;67.50
10089;DHT22;51898;49.864;8.550;2023-04-06T00:37:22;1.70;67.10
10089;DHT22;51898;49.864;8.550;2023-04-06T00:40:23;1.60;66.90
10089;DHT22;51898;49.864;8.550;2023-04-06T00:43:25;1.60;67.90
10089;DHT22;51898;49.864;8.550;2023-04-06T00:46:28;1.60;68.10
10089;DHT22;51898;49.864;8.550;2023-04-06T00:49:30;1.50;67.10
10089;DHT22;51898;49.864;8.550;2023-04-06T00:52:31;1.40;69.40
10089;DHT22;51898;49.864;8.550;2023-04-06T00:55:33;1.40;69.50
10089;DHT22;51898;49.864;8.550;2023-04-06T00:58:37;1.20;70.30
10089;DHT22;51898;49.864;8.550;2023-04-06T01:01:40;1.10;69.90
10089;DHT22;51898;49.864;8.550;2023-04-06T01:04:41;1.10;70.30
10089;DHT22;51898;49.864;8.550;2023-04-06T01:07:43;1.20;70.60
10089;DHT22;51898;49.864;8.550;2023-04-06T01:10:45;1.10;70.80
10089;DHT22;51898;49.864;8.550;2023-04-06T01:13:46;1.10;70.90
10089;DHT22;51898;49.864;8.550;2023-04-06T01:16:48;1.00;70.30
10089;DHT22;51898;49.864;8.550;2023-04-06T01:19:50;0.90;70.70
10089;DHT22;51898;49.864;8.550;2023-04-06T01:22:52;0.80;72.10
10089;DHT22;51898;49.864;8.550;2023-04-06T01:25:54;0.80;73.10
10089;DHT22;51898;49.864;8.550;2023-04-06T01:28:56;0.80;73.10
10089;DHT22;51898;49.864;8.550;2023-04-06T01:31:58;0.70;74.20
10089;DHT22;51898;49.864;8.550;2023-04-06T01:34:59;0.60;75.70
10089;DHT22;51898;49.864;8.550;2023-04-06T01:38:01;0.40;76.50
10089;DHT22;51898;49.864;8.550;2023-04-06T01:41:03;0.30;77.40
10089;DHT22;51898;49.864;8.550;2023-04-06T01:44:05;0.30;77.60
10089;DHT22;51898;49.864;8.550;2023-04-06T01:47:07;0.20;77.30
10089;DHT22;51898;49.864;8.550;2023-04-06T01:50:09;0.20;77.40
10089;DHT22;51898;49.864;8.550;2023-04-06T01:53:11;0.10;78.00
10089;DHT22;51898;49.864;8.550;2023-04-06T01:56:12;0.20;78.10
10089;DHT22;51898;49.864;8.550;2023-04-06T01:59:14;0.20;78.20
10089;DHT22;51898;49.864;8.550;2023-04-06T02:02:15;0.30;77.50
10089;DHT22;51898;49.864;8.550;2023-04-06T02:05:19;0.30;76.20
10089;DHT22;51898;49.864;8.550;2023-04-06T02:08:21;0.40;75.20
10089;DHT22;51898;49.864;8.550;2023-04-06T02:11:22;0.40;74.90
10089;DHT22;51898;49.864;8.550;2023-04-06T02:14:25;0.40;74.30
10089;DHT22;51898;49.864;8.550;2023-04-06T02:17:27;0.40;74.00
10089;DHT22;51898;49.864;8.550;2023-04-06T02:20:28;0.30;74.90
10089;DHT22;51898;49.864;8.550;2023-04-06T02:23:31;0.30;75.80
10089;DHT22;51898;49.864;8.550;2023-04-06T02:26:32;0.20;77.10
10089;DHT22;51898;49.864;8.550;2023-04-06T02:29:34;0.00;78.40
10089;DHT22;51898;49.864;8.550;2023-04-06T02:32:36;0.00;79.00
10089;DHT22;51898;49.864;8.550;2023-04-06T02:35:37;-0.10;79.40
10089;DHT22;51898;49.864;8.550;2023-04-06T02:38:39;-0.20;80.10
10089;DHT22;51898;49.864;8.550;2023-04-06T02:41:41;-0.30;80.80
10089;DHT22;51898;49.864;8.550;2023-04-06T02:44:43;-0.40;81.00
10089;DHT22;51898;49.864;8.550;2023-04-06T02:47:44;-0.50;81.50
10089;DHT22;51898;49.864;8.550;2023-04-06T02:50:46;-0.50;81.90
10089;DHT22;51898;49.864;8.550;2023-04-06T02:53:48;-0.60;82.20
10089;DHT22;51898;49.864;8.550;2023-04-06T02:56:49;-0.60;82.20
10089;DHT22;51898;49.864;8.550;2023-04-06T02:59:51;-0.60;81.80
10089;DHT22;51898;49.864;8.550;2023-04-06T03:02:53;-0.60;80.90
10089;DHT22;51898;49.864;8.550;2023-04-06T03:05:54;-0.60;81.20
10089;DHT22;51898;49.864;8.550;2023-04-06T03:08:57;-0.60;80.40
10089;DHT22;51898;49.864;8.550;2023-04-06T03:11:59;-0.60;80.30
10089;DHT22;51898;49.864;8.550;2023-04-06T03:15:01;-0.60;79.90
10089;DHT22;51898;49.864;8.550;2023-04-06T03:18:03;-0.70;78.90
10089;DHT22;51898;49.864;8.550;2023-04-06T03:21:04;-0.70;78.80
10089;DHT22;51898;49.864;8.550;2023-04-06T03:24:06;-0.70;79.10
10089;DHT22;51898;49.864;8.550;2023-04-06T03:27:09;-0.60;78.70
10089;DHT22;51898;49.864;8.550;2023-04-06T03:30:11;-0.60;79.10
10089;DHT22;51898;49.864;8.550;2023-04-06T03:33:12;-0.50;79.10
10089;DHT22;51898;49.864;8.550;2023-04-06T03:36:14;-0.50;79.20
10089;DHT22;51898;49.864;8.550;2023-04-06T03:39:16;-0.40;79.40
10089;DHT22;51898;49.864;8.550;2023-04-06T03:42:18;-0.40;79.00
10089;DHT22;51898;49.864;8.550;2023-04-06T03:45:23;-0.40;78.40
10089;DHT22;51898;49.864;8.550;2023-04-06T03:48:25;-0.30;77.30
10089;DHT22;51898;49.864;8.550;2023-04-06T03:51:27;-0.20;76.10
10089;DHT22;51898;49.864;8.550;2023-04-06T03:54:29;-0.20;74.70
10089;DHT22;51898;49.864;8.550;2023-04-06T03:57:30;-0.20;74.40
10089;DHT22;51898;49.864;8.550;2023-04-06T04:00:32;-0.10;74.10
10089;DHT22;51898;49.864;8.550;2023-04-06T04:03:34;0.00;73.80
10089;DHT22;51898;49.864;8.550;2023-04-06T04:06:36;-0.10;73.40
10089;DHT22;51898;49.864;8.550;2023-04-06T04:09:38;-0.20;73.70
10089;DHT22;51898;49.864;8.550;2023-04-06T04:12:39;-0.30;74.70
10089;DHT22;51898;49.864;8.550;2023-04-06T04:15:41;-0.40;75.60
10089;DHT22;51898;49.864;8.550;2023-04-06T04:18:43;-0.50;77.00
10089;DHT22;51898;49.864;8.550;2023-04-06T04:21:46;-0.60;77.80
10089;DHT22;51898;49.864;8.550;2023-04-06T04:24:48;-0.70;78.60
10089;DHT22;51898;49.864;8.550;2023-04-06T04:27:49;-0.90;79.70
10089;DHT22;51898;49.864;8.550;2023-04-06T04:30:52;-0.90;80.10
10089;DHT22;51898;49.864;8.550;2023-04-06T04:33:53;-1.00;81.30
10089;DHT22;51898;49.864;8.550;2023-04-06T04:36:55;-1.00;81.30
10089;DHT22;51898;49.864;8.550;2023-04-06T04:39:57;-0.90;81.00
10089;DHT22;51898;49.864;8.550;2023-04-06T04:42:58;-0.90;80.30
10089;DHT22;51898;49.864;8.550;2023-04-06T04:46:00;-0.80;80.10
10089;DHT22;51898;49.864;8.550;2023-04-06T04:49:01;-0.90;80.30
10089;DHT22;51898;49.864;8.550;2023-04-06T04:52:03;-0.80;80.30
10089;DHT22;51898;49.864;8.550;2023-04-06T04:55:05;-0.90;80.30
10089;DHT22;51898;49.864;8.550;2023-04-06T04:58:07;-0.90;80.20
10089;DHT22;51898;49.864;8.550;2023-04-06T05:01:10;-0.90;80.80
10089;DHT22;51898;49.864;8.550;2023-04-06T05:04:12;-0.80;80.70
10089;DHT22;51898;49.864;8.550;2023-04-06T05:07:13;-0.70;80.40
10089;DHT22;51898;49.864;8.550;2023-04-06T05:10:16;-0.70;79.50
10089;DHT22;51898;49.864;8.550;2023-04-06T05:13:18;-0.70;79.00
10089;DHT22;51898;49.864;8.550;2023-04-06T05:16:20;-0.60;79.20
10089;DHT22;51898;49.864;8.550;2023-04-06T05:19:22;-0.50;79.20
10089;DHT22;51898;49.864;8.550;2023-04-06T05:22:23;-0.40;78.80
10089;DHT22;51898;49.864;8.550;2023-04-06T05:25:25;-0.40;78.30
10089;DHT22;51898;49.864;8.550;2023-04-06T05:28:27;-0.40;78.10
10089;DHT22;51898;49.864;8.550;2023-04-06T05:31:29;-0.40;78.10
10089;DHT22;51898;49.864;8.550;2023-04-06T05:34:30;-0.40;78.00
10089;DHT22;51898;49.864;8.550;2023-04-06T05:37:32;-0.30;78.10
10089;DHT22;51898;49.864;8.550;2023-04-06T05:40:34;-0.30;78.20
10089;DHT22;51898;49.864;8.550;2023-04-06T05:43:36;-0.20;78.40
10089;DHT22;51898;49.864;8.550;2023-04-06T05:46:38;-0.20;78.30
10089;DHT22;51898;49.864;8.550;2023-04-06T05:49:41;-0.10;78.40
10089;DHT22;51898;49.864;8.550;2023-04-06T05:52:43;0.00;78.50
10089;DHT22;51898;49.864;8.550;2023-04-06T05:55:48;0.10;78.70
10089;DHT22;51898;49.864;8.550;2023-04-06T05:58:49;0.40;78.50
10089;DHT22;51898;49.864;8.550;2023-04-06T06:01:51;0.60;77.60
10089;DHT22;51898;49.864;8.550;2023-04-06T06:04:53;0.90;76.70
10089;DHT22;51898;49.864;8.550;2023-04-06T06:07:55;1.10;76.10
10089;DHT22;51898;49.864;8.550;2023-04-06T06:10:56;1.40;74.90
10089;DHT22;51898;49.864;8.550;2023-04-06T06:13:58;1.70;73.80
10089;DHT22;51898;49.864;8.550;2023-04-06T06:16:59;1.90;71.70
10089;DHT22;51898;49.864;8.550;2023-04-06T06:20:01;1.90;71.70
10089;DHT22;51898;49.864;8.550;2023-04-06T06:23:03;1.90;71.70
10089;DHT22;51898;49.864;8.550;2023-04-06T06:26:05;2.10;72.30
10089;DHT22;51898;49.864;8.550;2023-04-06T06:29:06;2.30;71.80
10089;DHT22;51898;49.864;8.550;2023-04-06T06:32:08;2.50;70.90
10089;DHT22;51898;49.864;8.550;2023-04-06T06:35:11;2.60;70.20
10089;DHT22;51898;49.864;8.550;2023-04-06T06:38:12;2.80;69.50
10089;DHT22;51898;49.864;8.550;2023-04-06T06:41:14;2.90;68.30
10089;DHT22;51898;49.864;8.550;2023-04-06T06:44:16;2.90;68.00
10089;DHT22;51898;49.864;8.550;2023-04-06T06:47:18;2.90;68.10
10089;DHT22;51898;49.864;8.550;2023-04-06T06:50:20;2.80;69.10
10089;DHT22;51898;49.864;8.550;2023-04-06T06:53:22;2.90;69.40
10089;DHT22;51898;49.864;8.550;2023-04-06T06:56:23;3.00;69.10
10089;DHT22;51898;49.864;8.550;2023-04-06T06:59:25;3.20;68.00
10089;DHT22;51898;49.864;8.550;2023-04-06T07:02:27;3.30;67.10
10089;DHT22;51898;49.864;8.550;2023-04-06T07:05:29;3.30;67.00
10089;DHT22;51898;49.864;8.550;2023-04-06T07:08:30;3.40;67.50
10089;DHT22;51898;49.864;8.550;2023-04-06T07:11:32;3.70;67.60
10089;DHT22;51898;49.864;8.550;2023-04-06T07:14:33;3.90;67.00
10089;DHT22;51898;49.864;8.550;2023-04-06T07:17:35;4.10;66.50
10089;DHT22;51898;49.864;8.550;2023-04-06T07:20:37;4.20;66.30
10089;DHT22;51898;49.864;8.550;2023-04-06T07:23:38;4.40;67.00
10089;DHT22;51898;49.864;8.550;2023-04-06T07:26:40;4.60;66.40
10089;DHT22;51898;49.864;8.550;2023-04-06T07:29:42;4.80;66.20
10089;DHT22;51898;49.864;8.550;2023-04-06T07:32:43;5.10;65.20
10089;DHT22;51898;49.864;8.550;2023-04-06T07:35:46;5.20;64.60
10089;DHT22;51898;49.864;8.550;2023-04-06T07:38:48;5.30;64.10
10089;DHT22;51898;49.864;8.550;2023-04-06T07:41:50;5.40;63.60
10089;DHT22;51898;49.864;8.550;2023-04-06T07:44:52;5.70;64.10
10089;DHT22;51898;49.864;8.550;2023-04-06T07:47:53;5.90;61.90
10089;DHT22;51898;49.864;8.550;2023-04-06T07:51:02;6.00;60.90
10089;DHT22;51898;49.864;8.550;2023-04-06T07:54:04;6.00;60.90
10089;DHT22;51898;49.864;8.550;2023-04-06T07:57:06;6.10;59.90
10089;DHT22;51898;49.864;8.550;2023-04-06T08:00:08;6.20;59.50
10089;DHT22;51898;49.864;8.550;2023-04-06T08:03:10;6.40;59.60
10089;DHT22;51898;49.864;8.550;2023-04-06T08:06:12;6.50;59.80
10089;DHT22;51898;49.864;8.550;2023-04-06T08:09:14;6.70;59.50
10089;DHT22;51898;49.864;8.550;2023-04-06T08:12:16;6.90;59.50
10089;DHT22;51898;49.864;8.550;2023-04-06T08:15:17;7.10;58.10
10089;DHT22;51898;49.864;8.550;2023-04-06T08:18:19;7.10;57.20
10089;DHT22;51898;49.864;8.550;2023-04-06T08:21:21;7.20;57.80
10089;DHT22;51898;49.864;8.550;2023-04-06T08:24:23;7.40;57.20
10089;DHT22;51898;49.864;8.550;2023-04-06T08:27:25;7.60;56.80
10089;DHT22;51898;49.864;8.550;2023-04-06T08:30:27;7.60;56.40
10089;DHT22;51898;49.864;8.550;2023-04-06T08:33:28;7.80;56.90
10089;DHT22;51898;49.864;8.550;2023-04-06T08:36:30;8.00;56.90
10089;DHT22;51898;49.864;8.550;2023-04-06T08:39:32;8.00;56.10
10089;DHT22;51898;49.864;8.550;2023-04-06T08:42:39;7.90;55.70
10089;DHT22;51898;49.864;8.550;2023-04-06T08:45:42;8.00;56.50
10089;DHT22;51898;49.864;8.550;2023-04-06T08:48:45;8.20;55.20
10089;DHT22;51898;49.864;8.550;2023-04-06T08:51:50;8.30;55.80
10089;DHT22;51898;49.864;8.550;2023-04-06T08:54:52;8.50;54.50
10089;DHT22;51898;49.864;8.550;2023-04-06T08:57:54;8.60;54.90
10089;DHT22;51898;49.864;8.550;2023-04-06T09:00:57;8.80;53.30
10089;DHT22;51898;49.864;8.550;2023-04-06T09:04:00;9.00;54.00
10089;DHT22;51898;49.864;8.550;2023-04-06T09:07:02;9.20;52.70
10089;DHT22;51898;49.864;8.550;2023-04-06T09:10:05;9.30;52.30
10089;DHT22;51898;49.864;8.550;2023-04-06T09:13:08;9.30;52.20
10089;DHT22;51898;49.864;8.550;2023-04-06T09:16:09;9.40;51.40
10089;DHT22;51898;49.864;8.550;2023-04-06T09:19:12;9.40;51.50
10089;DHT22;51898;49.864;8.550;2023-04-06T09:22:14;9.50;50.90
10089;DHT22;51898;49.864;8.550;2023-04-06T09:25:21;9.50;50.60
10089;DHT22;51898;49.864;8.550;2023-04-06T09:28:24;9.70;50.60
10089;DHT22;51898;49.864;8.550;2023-04-06T09:31:30;9.90;50.60
10089;DHT22;51898;49.864;8.550;2023-04-06T09:34:34;10.10;49.90
10089;DHT22;51898;49.864;8.550;2023-04-06T09:37:36;10.30;49.90
10089;DHT22;51898;49.864;8.550;2023-04-06T09:40:48;10.50;49.30
10089;DHT22;51898;49.864;8.550;2023-04-06T09:44:09;10.50;49.00
10089;DHT22;51898;49.864;8.550;2023-04-06T09:47:11;10.70;48.90
10089;DHT22;51898;49.864;8.550;2023-04-06T09:50:14;10.80;47.70
10089;DHT22;51898;49.864;8.550;2023-04-06T09:53:19;11.00;48.30
10089;DHT22;51898;49.864;8.550;2023-04-06T09:56:24;11.10;47.10
10089;DHT22;51898;49.864;8.550;2023-04-06T09:59:48;11.20;46.40
10089;DHT22;51898;49.864;8.550;2023-04-06T10:03:14;11.40;46.70
10089;DHT22;51898;49.864;8.550;2023-04-06T10:06:22;11.60;44.80
10089;DHT22;51898;49.864;8.550;2023-04-06T10:09:27;11.80;43.70
10089;DHT22;51898;49.864;8.550;2023-04-06T10:12:30;11.90;43.10
10089;DHT22;51898;49.864;8.550;2023-04-06T10:15:34;12.00;43.30
10089;DHT22;51898;49.864;8.550;2023-04-06T10:18:37;12.10;42.80
10089;DHT22;51898;49.864;8.550;2023-04-06T10:21:43;12.00;41.50
10089;DHT22;51898;49.864;8.550;2023-04-06T10:24:46;12.00;41.90
10089;DHT22;51898;49.864;8.550;2023-04-06T10:28:01;12.00;42.00
10089;DHT22;51898;49.864;8.550;2023-04-06T10:31:06;12.00;40.90
10089;DHT22;51898;49.864;8.550;2023-04-06T10:34:08;12.20;40.80
10089;DHT22;51898;49.864;8.550;2023-04-06T10:37:12;12.40;41.00
10089;DHT22;51898;49.864;8.550;2023-04-06T10:40:22;12.40;39.00
10089;DHT22;51898;49.864;8.550;2023-04-06T10:43:25;12.60;40.60
10089;DHT22;51898;49.864;8.550;2023-04-06T10:46:34;12.70;40.10
10089;DHT22;51898;49.864;8.550;2023-04-06T10:49:35;12.80;40.10
10089;DHT22;51898;49.864;8.550;2023-04-06T10:52:37;13.10;40.60
10089;DHT22;51898;49.864;8.550;2023-04-06T10:55:39;13.30;41.50
10089;DHT22;51898;49.864;8.550;2023-04-06T10:58:46;13.50;40.70
10089;DHT22;51898;49.864;8.550;2023-04-06T11:01:48;13.80;37.40
10089;DHT22;51898;49.864;8.550;2023-04-06T11:04:57;13.90;36.90
10089;DHT22;51898;49.864;8.550;2023-04-06T11:07:58;13.90;36.30
10089;DHT22;51898;49.864;8.550;2023-04-06T11:11:11;13.90;36.80
10089;DHT22;51898;49.864;8.550;2023-04-06T11:14:19;14.00;36.60
10089;DHT22;51898;49.864;8.550;2023-04-06T11:17:28;14.10;37.10
10089;DHT22;51898;49.864;8.550;2023-04-06T11:20:29;14.30;36.20
10089;DHT22;51898;49.864;8.550;2023-04-06T11:23:31;14.70;36.00
10089;DHT22;51898;49.864;8.550;2023-04-06T11:26:37;15.00;34.10
10089;DHT22;51898;49.864;8.550;2023-04-06T11:29:39;15.20;34.40
10089;DHT22;51898;49.864;8.550;2023-04-06T11:32:43;15.20;35.40
10089;DHT22;51898;49.864;8.550;2023-04-06T11:35:46;15.00;34.10
10089;DHT22;51898;49.864;8.550;2023-04-06T11:38:48;15.10;34.30
10089;DHT22;51898;49.864;8.550;2023-04-06T11:41:51;14.90;33.50
10089;DHT22;51898;49.864;8.550;2023-04-06T11:44:54;15.00;33.80
10089;DHT22;51898;49.864;8.550;2023-04-06T11:47:58;15.20;35.50
10089;DHT22;51898;49.864;8.550;2023-04-06T11:51:01;15.20;35.10
10089;DHT22;51898;49.864;8.550;2023-04-06T11:54:03;15.30;33.90
10089;DHT22;51898;49.864;8.550;2023-04-06T11:57:05;15.20;34.20
10089;DHT22;51898;49.864;8.550;2023-04-06T12:00:08;15.40;33.80
10089;DHT22;51898;49.864;8.550;2023-04-06T12:03:11;15.70;34.00
10089;DHT22;51898;49.864;8.550;2023-04-06T12:06:14;15.80;32.70
10089;DHT22;51898;49.864;8.550;2023-04-06T12:09:19;15.80;33.20
10089;DHT22;51898;49.864;8.550;2023-04-06T12:12:21;15.80;33.20
10089;DHT22;51898;49.864;8.550;2023-04-06T12:15:22;15.90;33.60
10089;DHT22;51898;49.864;8.550;2023-04-06T12:18:24;16.00;33.30
10089;DHT22;51898;49.864;8.550;2023-04-06T12:21:27;16.10;33.00
10089;DHT22;51898;49.864;8.550;2023-04-06T12:24:29;16.20;32.40
10089;DHT22;51898;49.864;8.550;2023-04-06T12:27:31;16.00;32.90
10089;DHT22;51898;49.864;8.550;2023-04-06T12:30:34;15.90;33.10
10089;DHT22;51898;49.864;8.550;2023-04-06T12:33:36;15.90;34.20
10089;DHT22;51898;49.864;8.550;2023-04-06T12:36:38;15.90;32.70
10089;DHT22;51898;49.864;8.550;2023-04-06T12:39:40;15.80;32.50
10089;DHT22;51898;49.864;8.550;2023-04-06T12:42:42;15.90;31.80
10089;DHT22;51898;49.864;8.550;2023-04-06T12:45:43;16.20;32.50
10089;DHT22;51898;49.864;8.550;2023-04-06T12:48:45;16.60;32.70
10089;DHT22;51898;49.864;8.550;2023-04-06T12:51:48;16.90;31.90
10089;DHT22;51898;49.864;8.550;2023-04-06T12:54:50;17.00;31.80
10089;DHT22;51898;49.864;8.550;2023-04-06T12:57:52;17.00;31.40
10089;DHT22;51898;49.864;8.550;2023-04-06T13:00:54;16.80;31.50
10089;DHT22;51898;49.864;8.550;2023-04-06T13:03:57;16.70;30.80
10089;DHT22;51898;49.864;8.550;2023-04-06T13:07:00;16.60;31.30
10089;DHT22;51898;49.864;8.550;2023-04-06T13:10:02;16.60;32.10
10089;DHT22;51898;49.864;8.550;2023-04-06T13:13:04;16.70;31.80
10089;DHT22;51898;49.864;8.550;2023-04-06T13:16:09;16.70;31.30
10089;DHT22;51898;49.864;8.550;2023-04-06T13:19:11;16.80;31.80
10089;DHT22;51898;49.864;8.550;2023-04-06T13:22:12;16.90;31.40
10089;DHT22;51898;49.864;8.550;2023-04-06T13:25:14;17.00;31.00
10089;DHT22;51898;49.864;8.550;2023-04-06T13:28:16;17.10;31.50
10089;DHT22;51898;49.864;8.550;2023-04-06T13:31:18;17.20;30.70
10089;DHT22;51898;49.864;8.550;2023-04-06T13:34:19;17.20;31.10
10089;DHT22;51898;49.864;8.550;2023-04-06T13:37:21;17.20;31.00
10089;DHT22;51898;49.864;8.550;2023-04-06T13:40:23;17.10;31.00
10089;DHT22;51898;49.864;8.550;2023-04-06T13:43:24;17.10;31.10
10089;DHT22;51898;49.864;8.550;2023-04-06T13:46:28;16.80;31.60
10089;DHT22;51898;49.864;8.550;2023-04-06T13:49:30;16.50;32.00
10089;DHT22;51898;49.864;8.550;2023-04-06T13:52:32;16.30;32.00
10089;DHT22;51898;49.864;8.550;2023-04-06T13:55:33;16.20;31.90
10089;DHT22;51898;49.864;8.550;2023-04-06T13:58:35;16.20;32.80
10089;DHT22;51898;49.864;8.550;2023-04-06T14:01:37;16.30;31.60
10089;DHT22;51898;49.864;8.550;2023-04-06T14:04:39;16.20;31.90
10089;DHT22;51898;49.864;8.550;2023-04-06T14:07:41;16.10;31.90
10089;DHT22;51898;49.864;8.550;2023-04-06T14:10:43;16.10;31.80
10089;DHT22;51898;49.864;8.550;2023-04-06T14:13:44;16.10;32.70
10089;DHT22;51898;49.864;8.550;2023-04-06T14:16:47;16.10;32.40
10089;DHT22;51898;49.864;8.550;2023-04-06T14:19:49;15.90;32.70
10089;DHT22;51898;49.864;8.550;2023-04-06T14:22:51;15.80;32.50
10089;DHT22;51898;49.864;8.550;2023-04-06T14:26:04;15.70;32.00
10089;DHT22;51898;49.864;8.550;2023-04-06T14:29:07;15.60;32.50
10089;DHT22;51898;49.864;8.550;2023-04-06T14:32:08;15.70;32.80
10089;DHT22;51898;49.864;8.550;2023-04-06T14:35:10;15.70;32.30
10089;DHT22;51898;49.864;8.550;2023-04-06T14:38:12;15.80;32.00
10089;DHT22;51898;49.864;8.550;2023-04-06T14:41:18;15.80;32.00
10089;DHT22;51898;49.864;8.550;2023-04-06T14:44:21;15.80;32.70
10089;DHT22;51898;49.864;8.550;2023-04-06T14:47:22;15.80;32.80
10089;DHT22;51898;49.864;8.550;2023-04-06T14:50:24;15.80;32.30
10089;DHT22;51898;49.864;8.550;2023-04-06T14:53:26;15.70;32.50
10089;DHT22;51898;49.864;8.550;2023-04-06T14:56:29;15.70;33.30
10089;DHT22;51898;49.864;8.550;2023-04-06T14:59:32;15.70;32.60
10089;DHT22;51898;49.864;8.550;2023-04-06T15:02:39;15.50;32.30
10089;DHT22;51898;49.864;8.550;2023-04-06T15:05:42;15.30;32.70
10089;DHT22;51898;49.864;8.550;2023-04-06T15:08:44;15.30;32.60
10089;DHT22;51898;49.864;8.550;2023-04-06T15:11:46;15.20;33.20
10089;DHT22;51898;49.864;8.550;2023-04-06T15:14:47;15.20;32.70
10089;DHT22;51898;49.864;8.550;2023-04-06T15:17:49;15.20;33.20
10089;DHT22;51898;49.864;8.550;2023-04-06T15:20:51;15.20;32.90
10089;DHT22;51898;49.864;8.550;2023-04-06T15:23:53;15.10;32.20
10089;DHT22;51898;49.864;8.550;2023-04-06T15:26:55;15.00;33.10
10089;DHT22;51898;49.864;8.550;2023-04-06T15:29:58;15.00;33.30
10089;DHT22;51898;49.864;8.550;2023-04-06T15:33:00;14.90;33.60
10089;DHT22;51898;49.864;8.550;2023-04-06T15:36:06;14.80;33.90
10089;DHT22;51898;49.864;8.550;2023-04-06T15:39:12;14.70;34.30
10089;DHT22;51898;49.864;8.550;2023-04-06T15:42:14;14.50;32.20
10089;DHT22;51898;49.864;8.550;2023-04-06T15:45:16;14.20;32.80
10089;DHT22;51898;49.864;8.550;2023-04-06T15:48:18;13.80;34.40
10089;DHT22;51898;49.864;8.550;2023-04-06T15:51:20;13.70;35.00
10089;DHT22;51898;49.864;8.550;2023-04-06T15:54:21;13.70;34.60
10089;DHT22;51898;49.864;8.550;2023-04-06T15:57:23;13.60;34.60
10089;DHT22;51898;49.864;8.550;2023-04-06T16:00:25;13.60;35.60
10089;DHT22;51898;49.864;8.550;2023-04-06T16:03:29;13.50;36.10
10089;DHT22;51898;49.864;8.550;2023-04-06T16:06:30;13.40;36.10
10089;DHT22;51898;49.864;8.550;2023-04-06T16:09:32;13.40;36.10
10089;DHT22;51898;49.864;8.550;2023-04-06T16:12:34;13.30;36.10
10089;DHT22;51898;49.864;8.550;2023-04-06T16:15:36;13.30;36.00
10089;DHT22;51898;49.864;8.550;2023-04-06T16:18:38;13.20;37.40
10089;DHT22;51898;49.864;8.550;2023-04-06T16:21:40;13.20;37.50
10089;DHT22;51898;49.864;8.550;2023-04-06T16:24:41;13.20;37.20
10089;DHT22;51898;49.864;8.550;2023-04-06T16:27:43;13.10;37.80
10089;DHT22;51898;49.864;8.550;2023-04-06T16:30:44;13.00;38.00
10089;DHT22;51898;49.864;8.550;2023-04-06T16:33:48;12.90;38.40
10089;DHT22;51898;49.864;8.550;2023-04-06T16:36:50;12.80;39.20
10089;DHT22;51898;49.864;8.550;2023-04-06T16:39:52;12.60;39.70
10089;DHT22;51898;49.864;8.550;2023-04-06T16:42:53;12.50;39.60
10089;DHT22;51898;49.864;8.550;2023-04-06T16:45:56;12.30;40.00
10089;DHT22;51898;49.864;8.550;2023-04-06T16:48:59;12.30;39.80
10089;DHT22;51898;49.864;8.550;2023-04-06T16:52:01;12.20;40.20
10089;DHT22;51898;49.864;8.550;2023-04-06T16:55:05;12.20;41.30
10089;DHT22;51898;49.864;8.550;2023-04-06T16:58:07;12.20;41.10
10089;DHT22;51898;49.864;8.550;2023-04-06T17:01:17;12.10;41.00
10089;DHT22;51898;49.864;8.550;2023-04-06T17:04:19;12.00;42.20
10089;DHT22;51898;49.864;8.550;2023-04-06T17:07:21;12.00;42.80
10089;DHT22;51898;49.864;8.550;2023-04-06T17:10:25;12.00;42.80
10089;DHT22;51898;49.864;8.550;2023-04-06T17:13:35;11.90;44.20
10089;DHT22;51898;49.864;8.550;2023-04-06T17:16:36;11.80;44.70
10089;DHT22;51898;49.864;8.550;2023-04-06T17:19:38;11.80;45.20
10089;DHT22;51898;49.864;8.550;2023-04-06T17:22:40;11.70;45.50
10089;DHT22;51898;49.864;8.550;2023-04-06T17:25:42;11.60;46.00
10089;DHT22;51898;49.864;8.550;2023-04-06T17:28:44;11.50;46.40
10089;DHT22;51898;49.864;8.550;2023-04-06T17:31:46;11.40;46.50
10089;DHT22;51898;49.864;8.550;2023-04-06T17:34:47;11.40;47.10
10089;DHT22;51898;49.864;8.550;2023-04-06T17:37:49;11.30;46.80
10089;DHT22;51898;49.864;8.550;2023-04-06T17:40:51;11.20;47.90
10089;DHT22;51898;49.864;8.550;2023-04-06T17:43:53;11.10;47.90
10089;DHT22;51898;49.864;8.550;2023-04-06T17:46:54;11.10;48.40
10089;DHT22;51898;49.864;8.550;2023-04-06T17:49:57;11.10;48.50
10089;DHT22;51898;49.864;8.550;2023-04-06T17:52:59;11.00;48.70
10089;DHT22;51898;49.864;8.550;2023-04-06T17:56:02;11.00;48.80
10089;DHT22;51898;49.864;8.550;2023-04-06T17:59:04;11.00;49.20
10089;DHT22;51898;49.864;8.550;2023-04-06T18:02:08;11.00;49.20
10089;DHT22;51898;49.864;8.550;2023-04-06T18:05:11;11.00;49.30
10089;DHT22;51898;49.864;8.550;2023-04-06T18:08:13;10.90;50.50
10089;DHT22;51898;49.864;8.550;2023-04-06T18:11:19;10.80;51.70
10089;DHT22;51898;49.864;8.550;2023-04-06T18:14:22;10.70;53.00
10089;DHT22;51898;49.864;8.550;2023-04-06T18:17:23;10.60;53.90
10089;DHT22;51898;49.864;8.550;2023-04-06T18:20:25;10.50;54.70
10089;DHT22;51898;49.864;8.550;2023-04-06T18:23:28;10.40;55.80
10089;DHT22;51898;49.864;8.550;2023-04-06T18:26:31;10.30;57.40
10089;DHT22;51898;49.864;8.550;2023-04-06T18:29:32;10.30;57.40
10089;DHT22;51898;49.864;8.550;2023-04-06T18:32:35;10.30;57.90
10089;DHT22;51898;49.864;8.550;2023-04-06T18:35:37;10.10;59.00
10089;DHT22;51898;49.864;8.550;2023-04-06T18:38:42;10.00;59.10
10089;DHT22;51898;49.864;8.550;2023-04-06T18:41:44;10.00;60.40
10089;DHT22;51898;49.864;8.550;2023-04-06T18:44:46;9.90;61.60
10089;DHT22;51898;49.864;8.550;2023-04-06T18:47:48;9.90;62.90
10089;DHT22;51898;49.864;8.550;2023-04-06T18:50:57;9.90;62.90
10089;DHT22;51898;49.864;8.550;2023-04-06T18:54:05;9.80;64.00
10089;DHT22;51898;49.864;8.550;2023-04-06T18:57:06;9.70;64.60
10089;DHT22;51898;49.864;8.550;2023-04-06T19:00:08;9.60;66.30
10089;DHT22;51898;49.864;8.550;2023-04-06T19:03:10;9.60;67.10
10089;DHT22;51898;49.864;8.550;2023-04-06T19:06:12;9.50;68.20
10089;DHT22;51898;49.864;8.550;2023-04-06T19:09:14;9.30;68.10
10089;DHT22;51898;49.864;8.550;2023-04-06T19:12:15;9.20;69.30
10089;DHT22;51898;49.864;8.550;2023-04-06T19:15:17;9.10;71.00
10089;DHT22;51898;49.864;8.550;2023-04-06T19:18:19;9.00;71.90
10089;DHT22;51898;49.864;8.550;2023-04-06T19:21:23;8.90;72.40